Time;durP1;ratioP1;P1;durP2;ratioP2;P2;SDS_P1;SDS_P2;PMS_P1;PMS_P2;Temp;Humidity;BMP_temperature;BMP_pressure;BME280_temperature;BME280_humidity;BME280_pressure;Samples;Min_cycle;Max_cycle;Signal;HPM_P1;HPM_P2
2021/03/21 00:04:24;;;;;;;5.87;2.60;;;;;;;;;;10571597;27;20483;-70
2021/03/21 00:09:27;;;;;;;8.67;3.83;;;;;;;;;;10567730;27;20705;-70
2021/03/21 00:14:30;;;;;;;6.90;3.10;;;;;;;;;;10568144;27;20290;-70
2021/03/21 00:19:32;;;;;;;8.63;3.47;;;;;;;;;;10572560;27;20507;-69
2021/03/21 00:24:34;;;;;;;6.47;3.57;;;;;;;;;;10564474;27;20206;-71
2021/03/21 00:29:42;;;;;;;9.47;3.93;;;;;;;;;;10565721;28;20650;-68
2021/03/21 00:34:44;;;;;;;10.07;4.10;;;;;;;;;;10553709;27;20229;-69
2021/03/21 00:39:46;;;;;;;8.80;3.70;;;;;;;;;;10575245;27;20714;-69
2021/03/21 00:44:48;;;;;;;8.40;4.17;;;;;;;;;;10576342;27;20243;-69
2021/03/21 00:49:50;;;;;;;8.27;3.50;;;;;;;;;;10580457;27;20234;-69
2021/03/21 00:54:52;;;;;;;8.17;2.40;;;;;;;;;;10579133;27;20218;-68
2021/03/21 01:00:11;;;;;;;8.10;3.93;;;;;;;;;;10560651;27;20194;-68
2021/03/21 01:05:15;;;;;;;8.57;3.67;;;;;;;;;;10568853;27;20224;-67
2021/03/21 01:10:18;;;;;;;5.37;2.47;;;;;;;;;;10568478;27;20571;-68
2021/03/21 01:15:21;;;;;;;7.17;2.63;;;;;;;;;;10562747;27;20284;-69
2021/03/21 01:20:24;;;;;;;9.77;3.83;;;;;;;;;;10567086;27;20214;-70
2021/03/21 01:25:28;;;;;;;7.13;3.27;;;;;;;;;;10585755;27;20277;-69
2021/03/21 01:30:29;;;;;;;7.80;3.67;;;;;;;;;;10566207;27;20230;-70
2021/03/21 01:35:31;;;;;;;8.03;3.60;;;;;;;;;;10578144;27;20191;-69
2021/03/21 01:40:34;;;;;;;4.70;2.60;;;;;;;;;;10577106;27;20221;-68
2021/03/21 01:45:38;;;;;;;8.70;3.70;;;;;;;;;;10573576;27;20286;-68
2021/03/21 01:50:44;;;;;;;7.67;3.60;;;;;;;;;;10574265;27;20304;-69
2021/03/21 01:55:46;;;;;;;9.10;3.67;;;;;;;;;;10578604;27;20194;-69
2021/03/21 02:00:49;;;;;;;3.47;1.77;;;;;;;;;;10571830;27;20748;-69
2021/03/21 02:05:55;;;;;;;4.87;2.47;;;;;;;;;;10578448;27;20556;-69
2021/03/21 02:11:01;;;;;;;9.37;3.93;;;;;;;;;;10587768;27;20246;-68
2021/03/21 02:16:06;;;;;;;6.90;3.10;;;;;;;;;;10561513;27;20251;-69
2021/03/21 02:21:12;;;;;;;7.23;3.40;;;;;;;;;;10557964;27;20305;-68
2021/03/21 02:26:31;;;;;;;7.93;3.00;;;;;;;;;;10575523;27;20283;-68
2021/03/21 02:31:36;;;;;;;6.57;3.13;;;;;;;;;;10539723;27;20629;-68
2021/03/21 02:36:39;;;;;;;6.83;3.30;;;;;;;;;;10565584;27;20221;-69
2021/03/21 02:41:43;;;;;;;3.37;1.87;;;;;;;;;;10568649;27;20630;-69
2021/03/21 02:46:47;;;;;;;7.43;3.10;;;;;;;;;;10574469;28;20237;-70
2021/03/21 02:51:51;;;;;;;8.10;3.80;;;;;;;;;;10599241;28;20217;-69
2021/03/21 02:56:55;;;;;;;6.43;2.70;;;;;;;;;;10577536;28;20264;-68
2021/03/21 03:02:01;;;;;;;3.27;1.77;;;;;;;;;;10583164;27;20711;-67
2021/03/21 03:07:05;;;;;;;8.63;3.10;;;;;;;;;;10587545;27;20237;-70
2021/03/21 03:12:09;;;;;;;7.57;3.13;;;;;;;;;;10588915;27;20214;-67
2021/03/21 03:17:17;;;;;;;8.30;3.60;;;;;;;;;;10576352;27;20665;-68
2021/03/21 03:22:22;;;;;;;6.90;3.03;;;;;;;;;;10567687;27;20618;-68
2021/03/21 03:27:28;;;;;;;6.07;2.73;;;;;;;;;;10592970;27;20199;-68
2021/03/21 03:32:30;;;;;;;8.07;3.33;;;;;;;;;;10575857;27;20642;-68
2021/03/21 03:37:32;;;;;;;7.23;3.20;;;;;;;;;;10572169;27;20263;-69
2021/03/21 03:42:38;;;;;;;8.37;4.33;;;;;;;;;;10579300;27;20226;-68
2021/03/21 03:47:49;;;;;;;7.83;4.10;;;;;;;;;;10562863;27;20194;-69
2021/03/21 03:52:57;;;;;;;7.90;3.30;;;;;;;;;;10570513;27;20659;-69
2021/03/21 03:58:01;;;;;;;7.57;2.90;;;;;;;;;;10580459;27;20195;-68
2021/03/21 04:03:15;;;;;;;7.03;3.67;;;;;;;;;;10573239;27;20293;-69
2021/03/21 04:08:21;;;;;;;5.50;2.67;;;;;;;;;;10595859;27;20683;-69
2021/03/21 04:13:27;;;;;;;7.60;3.00;;;;;;;;;;10577287;27;20709;-69
2021/03/21 04:18:32;;;;;;;9.17;3.37;;;;;;;;;;10557624;27;20207;-68
2021/03/21 04:23:37;;;;;;;3.57;1.53;;;;;;;;;;10584122;27;20230;-68
2021/03/21 04:28:41;;;;;;;7.83;3.23;;;;;;;;;;10571120;27;20207;-68
2021/03/21 04:33:45;;;;;;;7.47;3.03;;;;;;;;;;10573753;27;20218;-68
2021/03/21 04:38:49;;;;;;;7.70;2.93;;;;;;;;;;10575398;27;20681;-68
2021/03/21 04:43:53;;;;;;;7.80;3.23;;;;;;;;;;10577940;27;20661;-69
2021/03/21 04:48:56;;;;;;;9.57;3.60;;;;;;;;;;10567130;27;20211;-69
2021/03/21 04:53:59;;;;;;;4.50;2.13;;;;;;;;;;10580257;27;20237;-69
2021/03/21 04:59:03;;;;;;;6.90;3.13;;;;;;;;;;10553613;27;20552;-69
2021/03/21 05:04:09;;;;;;;6.57;2.93;;;;;;;;;;10577897;27;20280;-67
2021/03/21 05:09:14;;;;;;;7.43;3.33;;;;;;;;;;10573364;27;20270;-67
2021/03/21 05:14:19;;;;;;;4.13;1.50;;;;;;;;;;10570439;27;20273;-68
2021/03/21 05:19:24;;;;;;;7.40;3.00;;;;;;;;;;10580206;27;20203;-68
2021/03/21 05:24:27;;;;;;;6.60;2.77;;;;;;;;;;10580304;27;20276;-68
2021/03/21 05:29:38;;;;;;;6.33;2.77;;;;;;;;;;10577099;27;20562;-68
2021/03/21 05:34:41;;;;;;;5.10;2.37;;;;;;;;;;10539205;27;21952;-68
2021/03/21 05:39:45;;;;;;;5.77;2.40;;;;;;;;;;10558277;27;20659;-68
2021/03/21 05:45:04;;;;;;;3.73;1.83;;;;;;;;;;10561294;27;20230;-69
2021/03/21 05:50:25;;;;;;;5.23;2.33;;;;;;;;;;10564417;27;20206;-70
2021/03/21 05:55:35;;;;;;;5.47;1.93;;;;;;;;;;10577402;27;20191;-68
2021/03/21 06:00:50;;;;;;;9.40;2.17;;;;;;;;;;10573716;27;20223;-68
2021/03/21 06:06:28;;;;;;;3.37;1.70;;;;;;;;;;10578153;27;20336;-68
2021/03/21 06:11:51;;;;;;;7.23;3.10;;;;;;;;;;10573461;27;20254;-69
2021/03/21 06:17:07;;;;;;;2.20;1.40;;;;;;;;;;10567031;27;20195;-69
2021/03/21 06:22:22;;;;;;;5.97;2.70;;;;;;;;;;10565874;27;20694;-68
2021/03/21 06:27:39;;;;;;;5.27;2.10;;;;;;;;;;10568932;27;20274;-69
2021/03/21 06:32:50;;;;;;;5.97;2.80;;;;;;;;;;10546500;27;20246;-68
2021/03/21 06:38:11;;;;;;;5.70;2.47;;;;;;;;;;10567312;27;20189;-69
2021/03/21 06:43:22;;;;;;;7.03;2.67;;;;;;;;;;10533432;28;20227;-69
2021/03/21 06:48:32;;;;;;;7.90;2.93;;;;;;;;;;10556511;28;20727;-68
2021/03/21 06:53:38;;;;;;;5.80;2.60;;;;;;;;;;10563669;28;20225;-69
2021/03/21 06:58:58;;;;;;;4.97;2.10;;;;;;;;;;10563947;28;20249;-69
2021/03/21 07:04:17;;;;;;;4.43;1.70;;;;;;;;;;10563588;28;20300;-69
2021/03/21 07:09:43;;;;;;;5.73;2.70;;;;;;;;;;10563421;28;20956;-68
2021/03/21 07:15:04;;;;;;;6.97;2.73;;;;;;;;;;10554048;28;20690;-69
2021/03/21 07:20:35;;;;;;;6.40;2.63;;;;;;;;;;10553489;28;20297;-69
2021/03/21 07:25:56;;;;;;;6.37;2.30;;;;;;;;;;10462485;28;20301;-71
2021/03/21 07:31:02;;;;;;;5.33;1.90;;;;;;;;;;10546914;28;20272;-68
2021/03/21 07:36:14;;;;;;;6.00;2.50;;;;;;;;;;10566317;28;20211;-70
2021/03/21 07:41:21;;;;;;;4.17;1.90;;;;;;;;;;10561094;28;20631;-70
2021/03/21 07:46:31;;;;;;;6.53;2.87;;;;;;;;;;10569926;28;20215;-69
2021/03/21 07:51:43;;;;;;;4.83;2.20;;;;;;;;;;10556841;27;20215;-72
2021/03/21 07:56:46;;;;;;;7.87;3.30;;;;;;;;;;10575560;27;20202;-69
2021/03/21 08:01:47;;;;;;;5.73;2.43;;;;;;;;;;10570639;28;20299;-68
2021/03/21 08:06:54;;;;;;;4.70;2.30;;;;;;;;;;10567428;27;20195;-70
2021/03/21 08:12:02;;;;;;;4.20;1.87;;;;;;;;;;10566646;27;20326;-70
2021/03/21 08:17:06;;;;;;;4.73;2.03;;;;;;;;;;10567499;28;20202;-68
2021/03/21 08:22:10;;;;;;;3.67;1.53;;;;;;;;;;10564086;27;20230;-69
2021/03/21 08:27:22;;;;;;;6.97;2.40;;;;;;;;;;10575014;27;20194;-70
2021/03/21 08:32:24;;;;;;;4.20;1.60;;;;;;;;;;10568230;27;20683;-69
2021/03/21 08:37:33;;;;;;;5.67;2.33;;;;;;;;;;10567698;27;20194;-71
2021/03/21 08:42:37;;;;;;;5.87;3.00;;;;;;;;;;10571834;27;20227;-69
2021/03/21 08:47:40;;;;;;;3.43;1.63;;;;;;;;;;10565788;28;20563;-69
2021/03/21 08:52:44;;;;;;;4.40;1.97;;;;;;;;;;10567296;27;20298;-70
2021/03/21 08:57:49;;;;;;;5.10;2.20;;;;;;;;;;10547626;27;20239;-70
2021/03/21 09:02:51;;;;;;;5.53;2.30;;;;;;;;;;10569587;27;20322;-70
2021/03/21 09:08:06;;;;;;;7.17;2.50;;;;;;;;;;10557260;28;20186;-69
2021/03/21 09:13:17;;;;;;;5.80;2.40;;;;;;;;;;10569301;27;20303;-70
2021/03/21 09:18:26;;;;;;;6.47;2.57;;;;;;;;;;10566502;27;20256;-69
2021/03/21 09:23:33;;;;;;;6.63;2.90;;;;;;;;;;10563028;27;20202;-70
2021/03/21 09:28:36;;;;;;;2.63;1.53;;;;;;;;;;10550222;27;20252;-69
2021/03/21 09:33:45;;;;;;;2.67;1.40;;;;;;;;;;10563809;28;20569;-71
2021/03/21 09:38:50;;;;;;;5.73;2.57;;;;;;;;;;10547545;27;20187;-71
2021/03/21 09:44:02;;;;;;;5.97;2.50;;;;;;;;;;10546589;27;20229;-70
2021/03/21 09:49:06;;;;;;;3.67;1.43;;;;;;;;;;10557686;27;20562;-70
2021/03/21 09:54:12;;;;;;;4.53;2.10;;;;;;;;;;10575617;27;20330;-72
2021/03/21 09:59:20;;;;;;;6.37;2.97;;;;;;;;;;10559931;27;20627;-70
2021/03/21 10:04:26;;;;;;;5.13;2.50;;;;;;;;;;10550787;27;20207;-69
2021/03/21 10:09:29;;;;;;;7.60;2.87;;;;;;;;;;10567497;27;20195;-68
2021/03/21 10:14:42;;;;;;;3.47;1.87;;;;;;;;;;10567814;27;20527;-68
2021/03/21 10:19:55;;;;;;;5.13;2.00;;;;;;;;;;10577653;27;20217;-71
2021/03/21 10:24:58;;;;;;;6.20;2.67;;;;;;;;;;10575542;27;20271;-70
2021/03/21 10:30:15;;;;;;;7.77;3.30;;;;;;;;;;10570212;27;20239;-67
2021/03/21 10:35:35;;;;;;;6.67;2.70;;;;;;;;;;10568434;27;20499;-69
2021/03/21 10:40:44;;;;;;;5.97;2.57;;;;;;;;;;10548920;28;20206;-71
2021/03/21 10:45:48;;;;;;;5.37;2.80;;;;;;;;;;10563078;28;20266;-70
2021/03/21 10:50:58;;;;;;;7.20;3.20;;;;;;;;;;10564550;28;20682;-69
2021/03/21 10:56:00;;;;;;;7.03;2.90;;;;;;;;;;10559876;28;20187;-68
2021/03/21 11:01:22;;;;;;;4.80;2.10;;;;;;;;;;10544281;28;20226;-69
2021/03/21 11:06:26;;;;;;;3.90;1.63;;;;;;;;;;10551736;28;20199;-69
2021/03/21 11:11:32;;;;;;;6.10;2.53;;;;;;;;;;10546390;28;20221;-70
2021/03/21 11:16:34;;;;;;;5.87;2.27;;;;;;;;;;10560060;28;20256;-70
2021/03/21 11:21:38;;;;;;;5.33;2.97;;;;;;;;;;10568203;27;20648;-69
2021/03/21 11:26:40;;;;;;;7.50;2.70;;;;;;;;;;10573196;27;20651;-70
2021/03/21 11:31:43;;;;;;;8.00;3.80;;;;;;;;;;10554522;27;20222;-68
2021/03/21 11:36:46;;;;;;;5.67;2.80;;;;;;;;;;10569882;27;20180;-70
2021/03/21 11:41:48;;;;;;;9.23;3.77;;;;;;;;;;10555219;27;20317;-69
2021/03/21 11:46:50;;;;;;;8.43;3.20;;;;;;;;;;10551547;27;20191;-69
2021/03/21 11:51:58;;;;;;;5.37;2.90;;;;;;;;;;10575439;27;20207;-69
2021/03/21 11:57:03;;;;;;;8.13;3.33;;;;;;;;;;10573438;27;20215;-69
2021/03/21 12:02:19;;;;;;;6.63;2.83;;;;;;;;;;10570144;27;20325;-70
2021/03/21 12:07:25;;;;;;;2.97;1.60;;;;;;;;;;10578279;27;20516;-70
2021/03/21 12:12:45;;;;;;;5.63;2.23;;;;;;;;;;10569528;27;20227;-69
2021/03/21 12:17:47;;;;;;;5.43;2.03;;;;;;;;;;10564030;27;20644;-68
2021/03/21 12:22:50;;;;;;;6.10;2.67;;;;;;;;;;10559133;27;20210;-68
2021/03/21 12:27:54;;;;;;;5.40;2.40;;;;;;;;;;10556049;27;20213;-70
2021/03/21 12:33:11;;;;;;;7.87;3.57;;;;;;;;;;10568851;27;20305;-68
2021/03/21 12:38:25;;;;;;;4.57;2.37;;;;;;;;;;10569614;27;20282;-70
2021/03/21 12:43:28;;;;;;;10.30;4.07;;;;;;;;;;10563649;27;20218;-70
2021/03/21 12:48:30;;;;;;;7.17;3.50;;;;;;;;;;10543881;28;20215;-69
2021/03/21 12:53:33;;;;;;;6.07;2.60;;;;;;;;;;10568275;27;20267;-70
2021/03/21 12:58:36;;;;;;;8.70;3.90;;;;;;;;;;10558253;27;20643;-70
2021/03/21 13:03:38;;;;;;;10.03;4.17;;;;;;;;;;10552985;27;20240;-69
2021/03/21 13:08:41;;;;;;;4.77;2.40;;;;;;;;;;10566262;27;20210;-68
2021/03/21 13:13:42;;;;;;;8.90;3.80;;;;;;;;;;10572509;27;20202;-69
2021/03/21 13:18:44;;;;;;;10.17;4.40;;;;;;;;;;10570652;27;20276;-69
2021/03/21 13:23:47;;;;;;;5.67;2.43;;;;;;;;;;10572547;27;20221;-70
2021/03/21 13:28:49;;;;;;;6.00;2.83;;;;;;;;;;10549537;27;20195;-69
2021/03/21 13:33:50;;;;;;;8.47;3.77;;;;;;;;;;10570224;27;20294;-70
2021/03/21 13:38:52;;;;;;;4.63;2.30;;;;;;;;;;10575481;27;20199;-72
2021/03/21 13:44:06;;;;;;;6.43;3.43;;;;;;;;;;10581945;27;20607;-71
2021/03/21 13:49:08;;;;;;;10.80;4.50;;;;;;;;;;10552895;27;20218;-69
2021/03/21 13:54:10;;;;;;;8.30;3.97;;;;;;;;;;10564273;27;20306;-68
2021/03/21 13:59:12;;;;;;;10.27;4.80;;;;;;;;;;10565641;27;20546;-71
2021/03/21 14:04:14;;;;;;;6.53;2.73;;;;;;;;;;10551366;27;20203;-69
2021/03/21 14:09:16;;;;;;;7.67;3.83;;;;;;;;;;10569800;27;20198;-68
2021/03/21 14:14:18;;;;;;;10.77;4.60;;;;;;;;;;10565028;27;20247;-71
2021/03/21 14:19:20;;;;;;;8.17;3.90;;;;;;;;;;10566085;27;20233;-69
2021/03/21 14:24:25;;;;;;;6.93;2.80;;;;;;;;;;10567639;27;20747;-70
2021/03/21 14:29:27;;;;;;;10.60;4.80;;;;;;;;;;10561296;27;20190;-70
2021/03/21 14:34:28;;;;;;;7.77;3.43;;;;;;;;;;10547954;27;20214;-68
2021/03/21 14:39:31;;;;;;;4.00;2.30;;;;;;;;;;10568958;27;20194;-69
2021/03/21 14:44:32;;;;;;;5.67;2.10;;;;;;;;;;10565521;27;20258;-70
2021/03/21 14:49:34;;;;;;;8.40;4.40;;;;;;;;;;10561736;28;20248;-70
2021/03/21 14:54:37;;;;;;;5.90;2.83;;;;;;;;;;10572932;27;20684;-69
2021/03/21 14:59:38;;;;;;;8.43;3.87;;;;;;;;;;10568589;27;20198;-70
2021/03/21 15:04:40;;;;;;;6.93;3.47;;;;;;;;;;10552561;28;20291;-70
2021/03/21 15:09:42;;;;;;;9.63;5.27;;;;;;;;;;10564654;27;20191;-69
2021/03/21 15:14:44;;;;;;;7.30;4.03;;;;;;;;;;10554198;27;20281;-70
2021/03/21 15:19:46;;;;;;;11.17;5.27;;;;;;;;;;10572607;27;20488;-70
2021/03/21 15:24:48;;;;;;;10.97;5.90;;;;;;;;;;10574416;27;20376;-72
2021/03/21 15:29:50;;;;;;;12.87;6.17;;;;;;;;;;10578908;27;20206;-68
2021/03/21 15:34:51;;;;;;;11.90;6.10;;;;;;;;;;10572653;27;20210;-70
2021/03/21 15:39:54;;;;;;;10.73;4.67;;;;;;;;;;10552371;28;20605;-69
2021/03/21 15:44:56;;;;;;;10.83;6.10;;;;;;;;;;10571889;27;20620;-69
2021/03/21 15:49:58;;;;;;;13.63;5.43;;;;;;;;;;10555108;27;20287;-70
2021/03/21 15:55:01;;;;;;;11.33;5.27;;;;;;;;;;10570175;27;20230;-70
2021/03/21 16:00:03;;;;;;;13.73;4.67;;;;;;;;;;10570949;27;20226;-69
2021/03/21 16:05:05;;;;;;;10.27;5.23;;;;;;;;;;10546282;28;20233;-70
2021/03/21 16:10:08;;;;;;;10.37;4.47;;;;;;;;;;10570826;27;20736;-71
2021/03/21 16:15:10;;;;;;;13.97;6.37;;;;;;;;;;10571620;28;20218;-72
2021/03/21 16:20:13;;;;;;;9.77;4.33;;;;;;;;;;10550527;27;20651;-72
2021/03/21 16:25:17;;;;;;;10.47;4.70;;;;;;;;;;10568885;27;20222;-71
2021/03/21 16:30:21;;;;;;;10.50;5.00;;;;;;;;;;10571125;27;20580;-71
2021/03/21 16:35:24;;;;;;;8.00;4.30;;;;;;;;;;10572392;27;20228;-70
2021/03/21 16:40:27;;;;;;;8.97;4.37;;;;;;;;;;10585338;27;20195;-71
2021/03/21 16:45:30;;;;;;;10.90;4.87;;;;;;;;;;10571617;28;20195;-71
2021/03/21 16:50:32;;;;;;;10.13;5.23;;;;;;;;;;10572540;27;20202;-72
2021/03/21 16:55:35;;;;;;;7.73;3.90;;;;;;;;;;10571964;27;20256;-72
2021/03/21 17:00:37;;;;;;;6.33;3.23;;;;;;;;;;10557469;27;20612;-70
2021/03/21 17:05:39;;;;;;;10.83;4.90;;;;;;;;;;10567382;27;20524;-69
2021/03/21 17:10:43;;;;;;;10.47;4.73;;;;;;;;;;10552421;27;20215;-70
2021/03/21 17:15:45;;;;;;;8.17;3.87;;;;;;;;;;10572010;27;20196;-70
2021/03/21 17:20:46;;;;;;;11.63;5.83;;;;;;;;;;10575802;27;20211;-71
2021/03/21 17:25:51;;;;;;;9.80;3.67;;;;;;;;;;10570493;27;20229;-71
2021/03/21 17:30:53;;;;;;;7.10;3.77;;;;;;;;;;10582801;27;20282;-71
2021/03/21 17:35:55;;;;;;;8.83;4.13;;;;;;;;;;10573743;27;20278;-71
2021/03/21 17:40:58;;;;;;;9.20;4.73;;;;;;;;;;10576741;27;20301;-72
2021/03/21 17:46:00;;;;;;;11.20;5.30;;;;;;;;;;10553195;27;20207;-69
2021/03/21 17:51:01;;;;;;;10.77;5.20;;;;;;;;;;10552233;27;20223;-69
2021/03/21 17:56:05;;;;;;;12.03;6.10;;;;;;;;;;10572116;27;20527;-68
2021/03/21 18:01:08;;;;;;;10.00;4.63;;;;;;;;;;10571089;28;20317;-68
2021/03/21 18:06:10;;;;;;;7.87;4.17;;;;;;;;;;10572184;27;20195;-69
2021/03/21 18:11:13;;;;;;;8.93;4.30;;;;;;;;;;10573364;27;20301;-69
2021/03/21 18:16:15;;;;;;;11.27;5.30;;;;;;;;;;10573805;27;20651;-69
2021/03/21 18:21:17;;;;;;;10.57;5.50;;;;;;;;;;10554686;28;20268;-70
2021/03/21 18:26:19;;;;;;;11.87;5.67;;;;;;;;;;10571955;27;20258;-70
2021/03/21 18:31:25;;;;;;;10.07;4.87;;;;;;;;;;10568107;27;20211;-69
2021/03/21 18:36:27;;;;;;;9.93;4.77;;;;;;;;;;10562144;28;20187;-68
2021/03/21 18:41:29;;;;;;;8.90;4.30;;;;;;;;;;10553504;28;20309;-69
2021/03/21 18:46:31;;;;;;;6.50;3.40;;;;;;;;;;10569612;27;20210;-70
2021/03/21 18:51:48;;;;;;;11.40;5.03;;;;;;;;;;10567142;28;20678;-70
2021/03/21 18:56:52;;;;;;;12.83;5.77;;;;;;;;;;10568077;28;20197;-71
2021/03/21 19:01:54;;;;;;;7.20;3.07;;;;;;;;;;10579669;28;20231;-70
2021/03/21 19:06:56;;;;;;;10.80;4.80;;;;;;;;;;10552088;28;20237;-69
2021/03/21 19:12:01;;;;;;;9.47;5.20;;;;;;;;;;10566153;28;20261;-70
2021/03/21 19:17:04;;;;;;;10.83;4.63;;;;;;;;;;10550791;28;20240;-69
2021/03/21 19:22:06;;;;;;;9.97;5.00;;;;;;;;;;10564601;28;20671;-69
2021/03/21 19:27:09;;;;;;;6.03;3.20;;;;;;;;;;10548598;28;20211;-70
2021/03/21 19:32:11;;;;;;;9.17;4.33;;;;;;;;;;10562418;28;20214;-69
2021/03/21 19:37:12;;;;;;;10.77;5.20;;;;;;;;;;10568308;28;20191;-69
2021/03/21 19:42:15;;;;;;;8.43;4.30;;;;;;;;;;10567173;28;20251;-68
2021/03/21 19:47:16;;;;;;;10.17;5.33;;;;;;;;;;10574774;28;20195;-69
2021/03/21 19:52:18;;;;;;;10.73;5.03;;;;;;;;;;10559594;27;20245;-69
2021/03/21 19:57:21;;;;;;;10.93;5.87;;;;;;;;;;10561173;27;20256;-69
2021/03/21 20:02:25;;;;;;;7.30;2.93;;;;;;;;;;10587845;27;20215;-69
2021/03/21 20:07:27;;;;;;;8.73;3.77;;;;;;;;;;10557496;27;20203;-70
2021/03/21 20:12:29;;;;;;;10.53;4.47;;;;;;;;;;10553334;27;20214;-69
2021/03/21 20:17:30;;;;;;;8.73;4.50;;;;;;;;;;10544132;27;20226;-68
2021/03/21 20:22:32;;;;;;;5.47;2.87;;;;;;;;;;10550068;28;20592;-69
2021/03/21 20:27:35;;;;;;;10.83;5.63;;;;;;;;;;10546870;28;20321;-70
2021/03/21 20:32:37;;;;;;;8.53;3.70;;;;;;;;;;10542870;27;20273;-71
2021/03/21 20:37:39;;;;;;;9.20;4.70;;;;;;;;;;10568694;27;20205;-69
2021/03/21 20:42:44;;;;;;;8.40;4.00;;;;;;;;;;10566274;27;20321;-68
2021/03/21 20:47:46;;;;;;;11.02;5.45;;;;;;;;;;10579361;27;20445;-70
2021/03/21 20:52:50;;;;;;;9.67;4.90;;;;;;;;;;10581500;27;20218;-71
2021/03/21 20:57:52;;;;;;;9.50;4.70;;;;;;;;;;10588129;27;20202;-69
2021/03/21 21:02:54;;;;;;;9.50;4.07;;;;;;;;;;10577437;27;20279;-70
2021/03/21 21:07:56;;;;;;;7.73;4.07;;;;;;;;;;10577198;27;20198;-69
2021/03/21 21:12:59;;;;;;;11.77;5.70;;;;;;;;;;10572038;27;20289;-70
2021/03/21 21:18:01;;;;;;;10.13;5.57;;;;;;;;;;10580570;27;20190;-70
2021/03/21 21:23:03;;;;;;;10.10;4.43;;;;;;;;;;10550295;27;20212;-70
2021/03/21 21:28:06;;;;;;;9.93;5.00;;;;;;;;;;10556514;27;20202;-72
2021/03/21 21:33:08;;;;;;;6.23;2.73;;;;;;;;;;10565308;27;20215;-70
2021/03/21 21:38:11;;;;;;;10.87;5.60;;;;;;;;;;10568811;27;20241;-69
2021/03/21 21:43:15;;;;;;;14.47;6.53;;;;;;;;;;10563628;27;20262;-69
2021/03/21 21:48:16;;;;;;;12.30;6.23;;;;;;;;;;10567916;27;20268;-70
2021/03/21 21:53:18;;;;;;;9.90;5.47;;;;;;;;;;10573875;27;20222;-70
2021/03/21 21:58:21;;;;;;;13.03;6.07;;;;;;;;;;10561623;27;20190;-69
2021/03/21 22:03:26;;;;;;;12.85;7.65;;;;;;;;;;10545826;27;20462;-68
2021/03/21 22:08:29;;;;;;;11.10;6.17;;;;;;;;;;10569895;27;20195;-69
2021/03/21 22:13:31;;;;;;;11.43;5.43;;;;;;;;;;10569656;27;20358;-69
2021/03/21 22:18:33;;;;;;;11.77;6.30;;;;;;;;;;10568446;27;20206;-71
2021/03/21 22:23:36;;;;;;;11.00;5.23;;;;;;;;;;10567694;27;20242;-69
2021/03/21 22:28:39;;;;;;;13.83;6.53;;;;;;;;;;10574576;27;20195;-68
2021/03/21 22:33:41;;;;;;;14.23;6.60;;;;;;;;;;10551569;27;20665;-70
2021/03/21 22:38:43;;;;;;;12.60;5.90;;;;;;;;;;10581008;27;20562;-69
2021/03/21 22:43:45;;;;;;;12.20;6.20;;;;;;;;;;10561584;27;20311;-70
2021/03/21 22:48:46;;;;;;;13.70;6.60;;;;;;;;;;10569260;27;20191;-70
2021/03/21 22:53:48;;;;;;;12.57;6.33;;;;;;;;;;10561943;28;20333;-70
2021/03/21 22:58:52;;;;;;;12.37;6.03;;;;;;;;;;10553635;28;20190;-70
2021/03/21 23:03:53;;;;;;;15.10;6.70;;;;;;;;;;10574214;28;20314;-70
2021/03/21 23:08:55;;;;;;;12.23;7.13;;;;;;;;;;10574962;28;20244;-70
2021/03/21 23:13:58;;;;;;;12.77;7.20;;;;;;;;;;10570556;27;20309;-69
2021/03/21 23:18:59;;;;;;;14.33;7.57;;;;;;;;;;10580871;27;20293;-68
2021/03/21 23:24:01;;;;;;;14.67;7.30;;;;;;;;;;10556454;27;20775;-70
2021/03/21 23:29:04;;;;;;;12.23;6.67;;;;;;;;;;10588953;27;20199;-69
2021/03/21 23:34:05;;;;;;;13.73;7.17;;;;;;;;;;10587057;27;20637;-69
2021/03/21 23:39:07;;;;;;;13.50;6.83;;;;;;;;;;10588265;27;20238;-68
2021/03/21 23:44:09;;;;;;;12.83;6.97;;;;;;;;;;10580782;27;20214;-67
2021/03/21 23:49:11;;;;;;;12.97;7.17;;;;;;;;;;10586558;27;20934;-68
2021/03/21 23:54:13;;;;;;;14.10;6.80;;;;;;;;;;10553040;27;20210;-70
2021/03/21 23:59:16;;;;;;;13.27;7.00;;;;;;;;;;10563310;27;20243;-70
